RAM1437 GMTA-GMTN
Flight info
| Callsign | RAM1437 |
|---|---|
| Flight time | N/A |
| Altitude | 15000 |
| Route | GALTO |
| Aircraft | B738/M-SDE2E3FGHIRWXY/LB1 |
Departure
| Time | 2026-04-22 17:43 |
|---|---|
| Airport | Cherif Al Idrissi Airport (GMTA) |
Arrival
| Time | N/A |
|---|---|
| Airport | Sania Ramel Airport (GMTN) |
| Time | Latitude | Longitude | Altitude | Speed | Heading |
|---|---|---|---|---|---|
| 2026-04-22 17:35 | 35.17836 | -3.84213 | 61 ft | 0 kts | 215° |
| 2026-04-22 17:40 | 35.17835 | -3.84213 | 61 ft | 1 kts | 205° |
| 2026-04-22 17:40 | 35.17820 | -3.84197 | 55 ft | 8 kts | 131° |
| 2026-04-22 17:41 | 35.17780 | -3.84100 | 63 ft | 20 kts | 85° |
| 2026-04-22 17:41 | 35.17740 | -3.83960 | 60 ft | 16 kts | 167° |
| 2026-04-22 17:41 | 35.17595 | -3.83937 | 68 ft | 26 kts | 173° |
| 2026-04-22 17:41 | 35.17379 | -3.83906 | 82 ft | 36 kts | 173° |
| 2026-04-22 17:42 | 35.17103 | -3.83865 | 87 ft | 44 kts | 173° |
| 2026-04-22 17:42 | 35.16777 | -3.83817 | 95 ft | 50 kts | 173° |
| 2026-04-22 17:42 | 35.16636 | -3.83820 | 100 ft | 3 kts | 150° |
| 2026-04-22 17:42 | 35.16648 | -3.83785 | 100 ft | 5 kts | 13° |
| 2026-04-22 17:43 | 35.16738 | -3.83802 | 98 ft | 22 kts | 352° |
| 2026-04-22 17:43 | 35.17165 | -3.83875 | 84 ft | 111 kts | 351° |
| 2026-04-22 17:43 | 35.18204 | -3.84058 | 299 ft | 176 kts | 350° |
| 2026-04-22 17:43 | 35.19535 | -3.84281 | 1098 ft | 203 kts | 350° |
| 2026-04-22 17:44 | 35.20890 | -3.84563 | 2404 ft | 199 kts | 348° |
| 2026-04-22 17:44 | 35.22322 | -3.84820 | 3059 ft | 221 kts | 351° |
| 2026-04-22 17:44 | 35.23980 | -3.85042 | 3424 ft | 255 kts | 352° |
| 2026-04-22 17:44 | 35.25777 | -3.85277 | 4330 ft | 263 kts | 352° |
| 2026-04-22 17:45 | 35.27601 | -3.85529 | 5403 ft | 265 kts | 352° |
| 2026-04-22 17:45 | 35.29450 | -3.85797 | 6410 ft | 270 kts | 351° |
| 2026-04-22 17:45 | 35.31326 | -3.86080 | 7394 ft | 274 kts | 351° |
| 2026-04-22 17:45 | 35.33231 | -3.86374 | 8361 ft | 278 kts | 351° |
| 2026-04-22 17:46 | 35.35162 | -3.86677 | 9307 ft | 282 kts | 351° |
| 2026-04-22 17:46 | 35.37122 | -3.86988 | 10240 ft | 286 kts | 351° |
| 2026-04-22 17:46 | 35.39153 | -3.87312 | 10778 ft | 305 kts | 351° |
| 2026-04-22 17:46 | 35.41342 | -3.87664 | 11009 ft | 331 kts | 351° |
| 2026-04-22 17:47 | 35.43721 | -3.88053 | 11012 ft | 357 kts | 349° |
| 2026-04-22 17:47 | 35.46134 | -3.89059 | 11000 ft | 378 kts | 328° |
| 2026-04-22 17:47 | 35.48089 | -3.91239 | 10998 ft | 384 kts | 304° |
| 2026-04-22 17:47 | 35.49136 | -3.94220 | 11008 ft | 383 kts | 280° |
| 2026-04-22 17:48 | 35.49256 | -3.96374 | 11025 ft | 382 kts | 269° |
| 2026-04-22 17:48 | 35.49506 | -4.00721 | 11011 ft | 383 kts | 278° |
| 2026-04-22 17:48 | 35.49990 | -4.03940 | 11008 ft | 384 kts | 281° |
| 2026-04-22 17:48 | 35.50558 | -4.07145 | 11001 ft | 385 kts | 282° |
| 2026-04-22 17:49 | 35.51149 | -4.10359 | 11001 ft | 387 kts | 282° |
| 2026-04-22 17:49 | 35.51737 | -4.13585 | 11003 ft | 388 kts | 282° |
| 2026-04-22 17:49 | 35.52315 | -4.16815 | 11005 ft | 388 kts | 282° |
| 2026-04-22 17:49 | 35.52883 | -4.20055 | 11000 ft | 388 kts | 282° |
| 2026-04-22 17:50 | 35.53442 | -4.23298 | 11000 ft | 388 kts | 282° |
| 2026-04-22 17:50 | 35.53990 | -4.26504 | 10989 ft | 376 kts | 282° |
| 2026-04-22 17:50 | 35.54509 | -4.29562 | 10983 ft | 355 kts | 282° |
| 2026-04-22 17:50 | 35.54997 | -4.32448 | 10982 ft | 336 kts | 281° |
| 2026-04-22 17:51 | 35.55459 | -4.35187 | 10986 ft | 324 kts | 281° |
| 2026-04-22 17:51 | 35.55917 | -4.37914 | 10774 ft | 328 kts | 281° |
| 2026-04-22 17:51 | 35.56374 | -4.40630 | 10623 ft | 321 kts | 281° |
| 2026-04-22 17:51 | 35.56820 | -4.43290 | 10423 ft | 314 kts | 281° |
| 2026-04-22 17:52 | 35.57253 | -4.45868 | 10280 ft | 303 kts | 281° |
| 2026-04-22 17:52 | 35.57530 | -4.47525 | 10189 ft | 296 kts | 281° |
| 2026-04-22 17:52 | 35.58072 | -4.50762 | 10025 ft | 283 kts | 281° |
| 2026-04-22 17:52 | 35.58458 | -4.53078 | 9756 ft | 280 kts | 281° |
| 2026-04-22 17:53 | 35.58847 | -4.55410 | 9467 ft | 277 kts | 281° |
| 2026-04-22 17:53 | 35.59108 | -4.56972 | 9270 ft | 276 kts | 281° |
| 2026-04-22 17:53 | 35.59491 | -4.59275 | 8974 ft | 274 kts | 281° |
| 2026-04-22 17:53 | 35.59871 | -4.61563 | 8678 ft | 272 kts | 281° |
| 2026-04-22 17:54 | 35.60248 | -4.63835 | 8383 ft | 271 kts | 281° |
| 2026-04-22 17:54 | 35.60624 | -4.66096 | 8089 ft | 269 kts | 281° |
| 2026-04-22 17:54 | 35.60996 | -4.68344 | 7783 ft | 268 kts | 281° |
| 2026-04-22 17:54 | 35.61366 | -4.70582 | 7502 ft | 267 kts | 281° |
| 2026-04-22 17:55 | 35.61734 | -4.72807 | 7210 ft | 265 kts | 281° |
| 2026-04-22 17:55 | 35.62099 | -4.75022 | 6919 ft | 264 kts | 281° |
| 2026-04-22 17:55 | 35.62474 | -4.77222 | 6627 ft | 262 kts | 285° |
| 2026-04-22 17:55 | 35.63151 | -4.79298 | 6349 ft | 260 kts | 294° |
| 2026-04-22 17:56 | 35.63896 | -4.81318 | 6062 ft | 259 kts | 294° |
| 2026-04-22 17:56 | 35.64639 | -4.83326 | 5785 ft | 258 kts | 294° |
| 2026-04-22 17:56 | 35.65381 | -4.85331 | 5510 ft | 256 kts | 294° |
| 2026-04-22 17:56 | 35.66112 | -4.87319 | 5238 ft | 255 kts | 292° |
| 2026-04-22 17:57 | 35.66722 | -4.89356 | 4971 ft | 253 kts | 289° |
| 2026-04-22 17:57 | 35.67285 | -4.91398 | 4704 ft | 251 kts | 288° |
| 2026-04-22 17:57 | 35.67828 | -4.93391 | 4554 ft | 245 kts | 288° |
| 2026-04-22 17:57 | 35.68365 | -4.95372 | 4440 ft | 237 kts | 288° |
| 2026-04-22 17:58 | 35.68872 | -4.97246 | 4337 ft | 230 kts | 288° |
| 2026-04-22 17:58 | 35.69367 | -4.99080 | 4244 ft | 222 kts | 288° |
| 2026-04-22 17:58 | 35.69852 | -5.00876 | 4158 ft | 214 kts | 288° |
| 2026-04-22 17:58 | 35.70224 | -5.02581 | 4056 ft | 208 kts | 270° |
| 2026-04-22 17:59 | 35.69876 | -5.04279 | 4024 ft | 207 kts | 250° |
| 2026-04-22 17:59 | 35.69399 | -5.05986 | 3792 ft | 213 kts | 250° |
| 2026-04-22 17:59 | 35.68847 | -5.07673 | 3562 ft | 213 kts | 246° |
| 2026-04-22 17:59 | 35.68225 | -5.09323 | 3341 ft | 212 kts | 245° |
| 2026-04-22 18:00 | 35.67590 | -5.10936 | 3247 ft | 204 kts | 244° |
| 2026-04-22 18:00 | 35.66963 | -5.12520 | 2977 ft | 208 kts | 244° |
| 2026-04-22 18:00 | 35.66333 | -5.14112 | 2728 ft | 208 kts | 244° |
| 2026-04-22 18:00 | 35.65710 | -5.15689 | 2472 ft | 204 kts | 244° |
| 2026-04-22 18:01 | 35.65096 | -5.17246 | 2201 ft | 199 kts | 244° |
| 2026-04-22 18:01 | 35.64499 | -5.18759 | 1938 ft | 194 kts | 244° |
| 2026-04-22 18:01 | 35.63933 | -5.20192 | 1689 ft | 179 kts | 245° |
| 2026-04-22 18:01 | 35.63409 | -5.21522 | 1456 ft | 164 kts | 245° |
| 2026-04-22 18:02 | 35.62934 | -5.22728 | 1230 ft | 151 kts | 245° |
| 2026-04-22 18:02 | 35.62495 | -5.23842 | 1040 ft | 140 kts | 245° |
| 2026-04-22 18:02 | 35.62074 | -5.24910 | 872 ft | 135 kts | 245° |
| 2026-04-22 18:02 | 35.61674 | -5.25927 | 715 ft | 134 kts | 245° |
| 2026-04-22 18:03 | 35.61271 | -5.26949 | 528 ft | 130 kts | 245° |
| 2026-04-22 18:03 | 35.60877 | -5.27950 | 348 ft | 129 kts | 245° |
| 2026-04-22 18:03 | 35.60486 | -5.28944 | 178 ft | 130 kts | 244° |
| 2026-04-22 18:03 | 35.60086 | -5.29959 | 27 ft | 130 kts | 244° |
| 2026-04-22 18:04 | 35.59735 | -5.30853 | 20 ft | 99 kts | 244° |
| 2026-04-22 18:04 | 35.59487 | -5.31483 | 24 ft | 65 kts | 244° |